sensor_id;sensor_type;location;lat;lon;timestamp;pressure;altitude;pressure_sealevel;temperature;humidity
43125;BME280;49182;50.788;7.318;2022-10-16T00:00:53;100465.53;;;12.57;99.50
43125;BME280;49182;50.788;7.318;2022-10-16T00:03:20;100475.31;;;12.56;99.72
43125;BME280;49182;50.788;7.318;2022-10-16T00:05:46;100467.97;;;12.50;99.96
43125;BME280;49182;50.788;7.318;2022-10-16T00:08:13;100475.06;;;12.50;99.84
43125;BME280;49182;50.788;7.318;2022-10-16T00:10:40;100464.47;;;12.50;100.00
43125;BME280;49182;50.788;7.318;2022-10-16T00:13:08;100473.41;;;12.49;100.00
43125;BME280;49182;50.788;7.318;2022-10-16T00:15:35;100456.22;;;12.35;100.00
43125;BME280;49182;50.788;7.318;2022-10-16T00:18:03;100471.91;;;12.46;99.94
43125;BME280;49182;50.788;7.318;2022-10-16T00:20:29;100471.91;;;12.46;100.00
43125;BME280;49182;50.788;7.318;2022-10-16T00:22:56;100479.44;;;12.41;100.00
43125;BME280;49182;50.788;7.318;2022-10-16T00:25:23;100486.84;;;12.38;100.00
43125;BME280;49182;50.788;7.318;2022-10-16T00:27:49;100483.38;;;12.37;100.00
43125;BME280;49182;50.788;7.318;2022-10-16T00:30:17;100495.78;;;12.37;100.00
43125;BME280;49182;50.788;7.318;2022-10-16T00:32:44;100494.09;;;12.36;100.00
43125;BME280;49182;50.788;7.318;2022-10-16T00:35:10;100495.09;;;12.35;100.00
43125;BME280;49182;50.788;7.318;2022-10-16T00:37:37;100489.97;;;12.33;100.00
43125;BME280;49182;50.788;7.318;2022-10-16T00:40:04;100485.63;;;12.32;100.00
43125;BME280;49182;50.788;7.318;2022-10-16T00:42:31;100489.25;;;12.31;99.68
43125;BME280;49182;50.788;7.318;2022-10-16T00:44:57;100488.88;;;12.26;99.82
43125;BME280;49182;50.788;7.318;2022-10-16T00:47:27;100483.19;;;12.21;99.65
43125;BME280;49182;50.788;7.318;2022-10-16T00:49:59;100500.72;;;12.22;100.00
43125;BME280;49182;50.788;7.318;2022-10-16T00:52:26;100500.06;;;12.20;99.87
43125;BME280;49182;50.788;7.318;2022-10-16T00:54:54;100491.28;;;12.20;100.00
43125;BME280;49182;50.788;7.318;2022-10-16T00:57:21;100481.56;;;12.10;100.00
43125;BME280;49182;50.788;7.318;2022-10-16T00:59:48;100485.22;;;12.09;100.00
43125;BME280;49182;50.788;7.318;2022-10-16T01:02:16;100495.25;;;12.06;100.00
43125;BME280;49182;50.788;7.318;2022-10-16T01:04:46;100488.28;;;12.05;100.00
43125;BME280;49182;50.788;7.318;2022-10-16T01:07:19;100496.22;;;12.05;100.00
43125;BME280;49182;50.788;7.318;2022-10-16T01:09:53;100500.84;;;12.03;100.00
43125;BME280;49182;50.788;7.318;2022-10-16T01:12:30;100497.38;;;12.02;100.00
43125;BME280;49182;50.788;7.318;2022-10-16T01:15:08;100488.59;;;12.02;100.00
43125;BME280;49182;50.788;7.318;2022-10-16T01:17:41;100502.09;;;11.99;100.00
43125;BME280;49182;50.788;7.318;2022-10-16T01:20:16;100512.03;;;11.97;100.00
43125;BME280;49182;50.788;7.318;2022-10-16T01:22:58;100501.97;;;12.00;100.00
43125;BME280;49182;50.788;7.318;2022-10-16T01:25:36;100499.06;;;11.94;100.00
43125;BME280;49182;50.788;7.318;2022-10-16T01:28:09;100498.22;;;11.93;100.00
43125;BME280;49182;50.788;7.318;2022-10-16T01:30:40;100459.03;;;11.69;100.00
43125;BME280;49182;50.788;7.318;2022-10-16T01:33:12;100500.47;;;11.88;100.00
43125;BME280;49182;50.788;7.318;2022-10-16T01:35:43;100498.13;;;11.85;100.00
43125;BME280;49182;50.788;7.318;2022-10-16T01:38:15;100502.59;;;11.85;100.00
43125;BME280;49182;50.788;7.318;2022-10-16T01:40:46;100505.53;;;11.82;100.00
43125;BME280;49182;50.788;7.318;2022-10-16T01:43:17;100499.53;;;11.80;100.00
43125;BME280;49182;50.788;7.318;2022-10-16T01:45:46;100472.13;;;11.61;100.00
43125;BME280;49182;50.788;7.318;2022-10-16T01:48:16;100500.81;;;11.75;100.00
43125;BME280;49182;50.788;7.318;2022-10-16T01:50:44;100510.00;;;11.62;100.00
43125;BME280;49182;50.788;7.318;2022-10-16T01:53:15;100516.25;;;11.61;100.00
43125;BME280;49182;50.788;7.318;2022-10-16T01:55:44;100509.31;;;11.60;100.00
43125;BME280;49182;50.788;7.318;2022-10-16T01:58:14;100507.94;;;11.56;100.00
43125;BME280;49182;50.788;7.318;2022-10-16T02:00:44;100513.50;;;11.53;100.00
43125;BME280;49182;50.788;7.318;2022-10-16T02:03:14;100518.41;;;11.48;100.00
43125;BME280;49182;50.788;7.318;2022-10-16T02:05:45;100515.59;;;11.49;100.00
43125;BME280;49182;50.788;7.318;2022-10-16T02:08:13;100524.94;;;11.44;100.00
43125;BME280;49182;50.788;7.318;2022-10-16T02:10:40;100517.97;;;11.43;100.00
43125;BME280;49182;50.788;7.318;2022-10-16T02:13:11;100486.00;;;11.26;100.00
43125;BME280;49182;50.788;7.318;2022-10-16T02:15:40;100504.47;;;11.36;100.00
43125;BME280;49182;50.788;7.318;2022-10-16T02:18:07;100507.69;;;11.40;100.00
43125;BME280;49182;50.788;7.318;2022-10-16T02:20:40;100504.22;;;11.29;100.00
43125;BME280;49182;50.788;7.318;2022-10-16T02:23:13;100514.38;;;11.34;100.00
43125;BME280;49182;50.788;7.318;2022-10-16T02:25:44;100520.91;;;11.40;100.00
43125;BME280;49182;50.788;7.318;2022-10-16T02:28:16;100526.75;;;11.33;100.00
43125;BME280;49182;50.788;7.318;2022-10-16T02:30:48;100518.00;;;11.33;100.00
43125;BME280;49182;50.788;7.318;2022-10-16T02:33:17;100521.63;;;11.32;100.00
43125;BME280;49182;50.788;7.318;2022-10-16T02:35:47;100524.97;;;11.34;100.00
43125;BME280;49182;50.788;7.318;2022-10-16T02:38:15;100517.88;;;11.34;100.00
43125;BME280;49182;50.788;7.318;2022-10-16T02:40:43;100516.91;;;11.35;100.00
43125;BME280;49182;50.788;7.318;2022-10-16T02:43:10;100524.81;;;11.35;100.00
43125;BME280;49182;50.788;7.318;2022-10-16T02:45:37;100521.03;;;11.38;100.00
43125;BME280;49182;50.788;7.318;2022-10-16T02:48:06;100525.94;;;11.33;100.00
43125;BME280;49182;50.788;7.318;2022-10-16T02:50:32;100534.25;;;11.38;100.00
43125;BME280;49182;50.788;7.318;2022-10-16T02:52:59;100541.22;;;11.39;100.00
43125;BME280;49182;50.788;7.318;2022-10-16T02:55:26;100521.47;;;11.33;100.00
43125;BME280;49182;50.788;7.318;2022-10-16T02:57:53;100523.25;;;11.43;100.00
43125;BME280;49182;50.788;7.318;2022-10-16T03:00:20;100531.75;;;11.46;100.00
43125;BME280;49182;50.788;7.318;2022-10-16T03:02:46;100531.75;;;11.46;100.00
43125;BME280;49182;50.788;7.318;2022-10-16T03:05:14;100524.50;;;11.48;100.00
43125;BME280;49182;50.788;7.318;2022-10-16T03:07:41;100539.38;;;11.49;100.00
43125;BME280;49182;50.788;7.318;2022-10-16T03:10:08;100537.44;;;11.51;100.00
43125;BME280;49182;50.788;7.318;2022-10-16T03:12:35;100526.75;;;11.53;100.00
43125;BME280;49182;50.788;7.318;2022-10-16T03:15:02;100525.03;;;11.61;100.00
43125;BME280;49182;50.788;7.318;2022-10-16T03:17:29;100527.66;;;11.61;100.00
43125;BME280;49182;50.788;7.318;2022-10-16T03:19:56;100520.44;;;11.63;100.00
43125;BME280;49182;50.788;7.318;2022-10-16T03:22:24;100520.56;;;11.62;100.00
43125;BME280;49182;50.788;7.318;2022-10-16T03:24:50;100511.28;;;11.58;100.00
43125;BME280;49182;50.788;7.318;2022-10-16T03:27:17;100505.28;;;11.56;100.00
43125;BME280;49182;50.788;7.318;2022-10-16T03:29:43;100524.63;;;11.56;100.00
43125;BME280;49182;50.788;7.318;2022-10-16T03:32:10;100520.72;;;11.60;100.00
43125;BME280;49182;50.788;7.318;2022-10-16T03:34:37;100520.56;;;11.62;100.00
43125;BME280;49182;50.788;7.318;2022-10-16T03:37:03;100527.53;;;11.63;100.00
43125;BME280;49182;50.788;7.318;2022-10-16T03:39:32;100537.84;;;11.66;100.00
43125;BME280;49182;50.788;7.318;2022-10-16T03:41:58;100534.75;;;11.70;100.00
43125;BME280;49182;50.788;7.318;2022-10-16T03:44:25;100514.88;;;11.66;100.00
43125;BME280;49182;50.788;7.318;2022-10-16T03:46:51;100516.69;;;11.75;100.00
43125;BME280;49182;50.788;7.318;2022-10-16T03:49:18;100519.19;;;11.77;100.00
43125;BME280;49182;50.788;7.318;2022-10-16T03:51:44;100523.50;;;11.78;100.00
43125;BME280;49182;50.788;7.318;2022-10-16T03:54:11;100503.28;;;11.67;100.00
43125;BME280;49182;50.788;7.318;2022-10-16T03:56:39;100512.75;;;11.80;100.00
43125;BME280;49182;50.788;7.318;2022-10-16T03:59:05;100518.75;;;11.82;100.00
43125;BME280;49182;50.788;7.318;2022-10-16T04:01:32;100522.94;;;11.84;100.00
43125;BME280;49182;50.788;7.318;2022-10-16T04:03:59;100532.50;;;11.85;100.00
43125;BME280;49182;50.788;7.318;2022-10-16T04:06:26;100542.81;;;11.88;100.00
43125;BME280;49182;50.788;7.318;2022-10-16T04:08:52;100548.94;;;11.89;100.00
43125;BME280;49182;50.788;7.318;2022-10-16T04:11:19;100557.13;;;11.95;100.00
43125;BME280;49182;50.788;7.318;2022-10-16T04:13:47;100541.59;;;11.83;100.00
43125;BME280;49182;50.788;7.318;2022-10-16T04:16:13;100563.53;;;11.93;100.00
43125;BME280;49182;50.788;7.318;2022-10-16T04:18:40;100561.03;;;11.91;100.00
43125;BME280;49182;50.788;7.318;2022-10-16T04:21:07;100534.75;;;11.70;100.00
43125;BME280;49182;50.788;7.318;2022-10-16T04:23:33;100572.88;;;11.97;100.00
43125;BME280;49182;50.788;7.318;2022-10-16T04:26:00;100570.63;;;12.02;100.00
43125;BME280;49182;50.788;7.318;2022-10-16T04:28:27;100575.22;;;12.00;100.00
43125;BME280;49182;50.788;7.318;2022-10-16T04:30:55;100570.91;;;11.99;100.00
43125;BME280;49182;50.788;7.318;2022-10-16T04:33:22;100551.66;;;12.06;100.00
43125;BME280;49182;50.788;7.318;2022-10-16T04:35:48;100547.19;;;12.07;100.00
43125;BME280;49182;50.788;7.318;2022-10-16T04:38:15;100550.00;;;12.05;100.00
43125;BME280;49182;50.788;7.318;2022-10-16T04:40:42;100561.28;;;11.98;100.00
43125;BME280;49182;50.788;7.318;2022-10-16T04:43:08;100575.78;;;12.03;100.00
43125;BME280;49182;50.788;7.318;2022-10-16T04:45:35;100572.00;;;12.06;100.00
43125;BME280;49182;50.788;7.318;2022-10-16T04:48:03;100577.28;;;12.06;100.00
43125;BME280;49182;50.788;7.318;2022-10-16T04:50:30;100577.94;;;12.18;100.00
43125;BME280;49182;50.788;7.318;2022-10-16T04:53:04;100583.38;;;12.16;100.00
43125;BME280;49182;50.788;7.318;2022-10-16T04:55:30;100591.31;;;12.16;100.00
43125;BME280;49182;50.788;7.318;2022-10-16T04:57:57;100573.81;;;12.05;100.00
43125;BME280;49182;50.788;7.318;2022-10-16T05:00:24;100590.06;;;12.20;100.00
43125;BME280;49182;50.788;7.318;2022-10-16T05:02:50;100571.72;;;12.09;100.00
43125;BME280;49182;50.788;7.318;2022-10-16T05:05:19;100589.75;;;12.23;100.00
43125;BME280;49182;50.788;7.318;2022-10-16T05:07:45;100578.25;;;12.14;100.00
43125;BME280;49182;50.788;7.318;2022-10-16T05:10:12;100577.66;;;12.21;100.00
43125;BME280;49182;50.788;7.318;2022-10-16T05:12:38;100565.03;;;12.05;100.00
43125;BME280;49182;50.788;7.318;2022-10-16T05:15:06;100600.50;;;12.22;100.00
43125;BME280;49182;50.788;7.318;2022-10-16T05:17:32;100613.88;;;12.20;100.00
43125;BME280;49182;50.788;7.318;2022-10-16T05:19:59;100609.25;;;12.22;100.00
43125;BME280;49182;50.788;7.318;2022-10-16T05:22:27;100611.63;;;12.25;100.00
43125;BME280;49182;50.788;7.318;2022-10-16T05:24:53;100616.63;;;12.28;100.00
43125;BME280;49182;50.788;7.318;2022-10-16T05:27:20;100577.69;;;12.11;100.00
43125;BME280;49182;50.788;7.318;2022-10-16T05:29:47;100601.41;;;12.40;100.00
43125;BME280;49182;50.788;7.318;2022-10-16T05:32:15;100600.19;;;12.34;100.00
43125;BME280;49182;50.788;7.318;2022-10-16T05:34:42;100610.22;;;12.31;100.00
43125;BME280;49182;50.788;7.318;2022-10-16T05:37:09;100601.44;;;12.30;100.00
43125;BME280;49182;50.788;7.318;2022-10-16T05:39:37;100606.88;;;12.29;100.00
43125;BME280;49182;50.788;7.318;2022-10-16T05:42:04;100617.31;;;12.30;100.00
43125;BME280;49182;50.788;7.318;2022-10-16T05:44:31;100618.28;;;12.29;100.00
43125;BME280;49182;50.788;7.318;2022-10-16T05:46:57;100619.00;;;12.31;100.00
43125;BME280;49182;50.788;7.318;2022-10-16T05:49:24;100603.94;;;12.32;100.00
43125;BME280;49182;50.788;7.318;2022-10-16T05:51:50;100605.31;;;12.36;100.00
43125;BME280;49182;50.788;7.318;2022-10-16T05:54:17;100616.59;;;12.38;100.00
43125;BME280;49182;50.788;7.318;2022-10-16T05:56:45;100634.44;;;12.36;100.00
43125;BME280;49182;50.788;7.318;2022-10-16T05:59:12;100633.34;;;12.29;100.00
43125;BME280;49182;50.788;7.318;2022-10-16T06:01:38;100632.09;;;12.33;100.00
43125;BME280;49182;50.788;7.318;2022-10-16T06:04:05;100623.91;;;12.26;100.00
43125;BME280;49182;50.788;7.318;2022-10-16T06:06:32;100635.28;;;12.36;100.00
43125;BME280;49182;50.788;7.318;2022-10-16T06:08:59;100610.66;;;12.16;100.00
43125;BME280;49182;50.788;7.318;2022-10-16T06:11:26;100648.06;;;12.41;100.00
43125;BME280;49182;50.788;7.318;2022-10-16T06:13:56;100642.50;;;12.44;100.00
43125;BME280;49182;50.788;7.318;2022-10-16T06:16:24;100648.31;;;12.47;100.00
43125;BME280;49182;50.788;7.318;2022-10-16T06:18:52;100650.13;;;12.47;100.00
43125;BME280;49182;50.788;7.318;2022-10-16T06:21:21;100659.75;;;12.48;100.00
43125;BME280;49182;50.788;7.318;2022-10-16T06:23:48;100658.06;;;12.47;100.00
43125;BME280;49182;50.788;7.318;2022-10-16T06:26:16;100661.03;;;12.44;100.00
43125;BME280;49182;50.788;7.318;2022-10-16T06:28:44;100664.91;;;12.49;100.00
43125;BME280;49182;50.788;7.318;2022-10-16T06:31:12;100650.03;;;12.39;100.00
43125;BME280;49182;50.788;7.318;2022-10-16T06:33:39;100675.50;;;12.49;100.00
43125;BME280;49182;50.788;7.318;2022-10-16T06:36:07;100677.06;;;12.42;100.00
43125;BME280;49182;50.788;7.318;2022-10-16T06:38:35;100681.19;;;12.54;100.00
43125;BME280;49182;50.788;7.318;2022-10-16T06:41:02;100674.78;;;12.57;100.00
43125;BME280;49182;50.788;7.318;2022-10-16T06:43:30;100691.50;;;12.57;100.00
43125;BME280;49182;50.788;7.318;2022-10-16T06:45:57;100698.19;;;12.62;100.00
43125;BME280;49182;50.788;7.318;2022-10-16T06:48:26;100689.00;;;12.56;100.00
43125;BME280;49182;50.788;7.318;2022-10-16T06:50:57;100712.53;;;12.59;100.00
43125;BME280;49182;50.788;7.318;2022-10-16T06:53:24;100699.84;;;12.63;100.00
43125;BME280;49182;50.788;7.318;2022-10-16T06:55:50;100708.63;;;12.63;100.00
43125;BME280;49182;50.788;7.318;2022-10-16T06:58:17;100728.16;;;12.62;100.00
43125;BME280;49182;50.788;7.318;2022-10-16T07:00:44;100732.34;;;12.65;100.00
43125;BME280;49182;50.788;7.318;2022-10-16T07:03:10;100728.09;;;12.72;100.00
43125;BME280;49182;50.788;7.318;2022-10-16T07:05:39;100718.78;;;12.68;100.00
43125;BME280;49182;50.788;7.318;2022-10-16T07:08:06;100733.66;;;12.78;100.00
43125;BME280;49182;50.788;7.318;2022-10-16T07:10:33;100724.28;;;12.84;100.00
43125;BME280;49182;50.788;7.318;2022-10-16T07:12:59;100711.09;;;12.74;100.00
43125;BME280;49182;50.788;7.318;2022-10-16T07:15:26;100732.94;;;12.86;100.00
43125;BME280;49182;50.788;7.318;2022-10-16T07:17:53;100713.03;;;12.72;100.00
43125;BME280;49182;50.788;7.318;2022-10-16T07:20:20;100762.75;;;12.97;100.00
43125;BME280;49182;50.788;7.318;2022-10-16T07:22:48;100761.06;;;12.96;100.00
43125;BME280;49182;50.788;7.318;2022-10-16T07:25:14;100767.03;;;13.08;100.00
43125;BME280;49182;50.788;7.318;2022-10-16T07:27:41;100782.38;;;13.14;100.00
43125;BME280;49182;50.788;7.318;2022-10-16T07:30:08;100778.44;;;13.18;100.00
43125;BME280;49182;50.788;7.318;2022-10-16T07:32:35;100686.03;;;12.69;100.00
43125;BME280;49182;50.788;7.318;2022-10-16T07:35:01;100686.47;;;12.64;100.00
43125;BME280;49182;50.788;7.318;2022-10-16T07:37:28;100795.00;;;13.30;100.00
43125;BME280;49182;50.788;7.318;2022-10-16T07:39:56;100793.56;;;13.35;100.00
43125;BME280;49182;50.788;7.318;2022-10-16T07:42:23;100801.63;;;13.44;100.00
43125;BME280;49182;50.788;7.318;2022-10-16T07:44:49;100809.00;;;13.50;100.00
43125;BME280;49182;50.788;7.318;2022-10-16T07:47:16;100813.16;;;13.52;100.00
43125;BME280;49182;50.788;7.318;2022-10-16T07:49:42;100814.78;;;13.63;100.00
43125;BME280;49182;50.788;7.318;2022-10-16T07:52:09;100814.03;;;13.70;100.00
43125;BME280;49182;50.788;7.318;2022-10-16T07:54:36;100812.63;;;13.76;100.00
43125;BME280;49182;50.788;7.318;2022-10-16T07:57:04;100818.44;;;13.80;100.00
43125;BME280;49182;50.788;7.318;2022-10-16T07:59:30;100787.56;;;13.61;100.00
43125;BME280;49182;50.788;7.318;2022-10-16T08:01:57;100828.16;;;13.89;100.00
43125;BME280;49182;50.788;7.318;2022-10-16T08:04:23;100831.34;;;13.92;100.00
43125;BME280;49182;50.788;7.318;2022-10-16T08:06:50;100837.03;;;13.97;100.00
43125;BME280;49182;50.788;7.318;2022-10-16T08:09:17;100792.78;;;13.70;100.00
43125;BME280;49182;50.788;7.318;2022-10-16T08:11:43;100842.31;;;14.07;100.00
43125;BME280;49182;50.788;7.318;2022-10-16T08:14:11;100820.00;;;14.00;100.00
43125;BME280;49182;50.788;7.318;2022-10-16T08:16:38;100838.88;;;14.14;100.00
43125;BME280;49182;50.788;7.318;2022-10-16T08:19:04;100816.63;;;13.98;100.00
43125;BME280;49182;50.788;7.318;2022-10-16T08:21:31;100828.69;;;14.10;100.00
43125;BME280;49182;50.788;7.318;2022-10-16T08:23:57;100845.56;;;14.18;100.00
43125;BME280;49182;50.788;7.318;2022-10-16T08:26:25;100855.16;;;14.19;100.00
43125;BME280;49182;50.788;7.318;2022-10-16T08:28:52;100851.53;;;14.21;100.00
43125;BME280;49182;50.788;7.318;2022-10-16T08:31:20;100859.91;;;14.26;100.00
43125;BME280;49182;50.788;7.318;2022-10-16T08:33:47;100858.59;;;14.30;100.00
43125;BME280;49182;50.788;7.318;2022-10-16T08:36:15;100870.00;;;14.40;100.00
43125;BME280;49182;50.788;7.318;2022-10-16T08:38:42;100867.72;;;14.45;100.00
43125;BME280;49182;50.788;7.318;2022-10-16T08:41:20;100870.44;;;14.96;100.00
43125;BME280;49182;50.788;7.318;2022-10-16T08:44:07;100857.19;;;15.64;100.00
43125;BME280;49182;50.788;7.318;2022-10-16T08:46:44;100842.59;;;15.76;100.00
43125;BME280;49182;50.788;7.318;2022-10-16T08:49:16;100870.78;;;16.11;100.00
43125;BME280;49182;50.788;7.318;2022-10-16T08:51:43;100836.63;;;15.99;100.00
43125;BME280;49182;50.788;7.318;2022-10-16T08:54:21;100844.81;;;15.97;100.00
43125;BME280;49182;50.788;7.318;2022-10-16T08:56:49;100883.13;;;16.12;99.55
43125;BME280;49182;50.788;7.318;2022-10-16T08:59:16;100884.47;;;16.08;99.06
43125;BME280;49182;50.788;7.318;2022-10-16T09:01:46;100881.28;;;16.05;98.26
43125;BME280;49182;50.788;7.318;2022-10-16T09:04:48;100878.44;;;15.98;97.58
43125;BME280;49182;50.788;7.318;2022-10-16T09:07:26;100877.88;;;15.87;96.01
43125;BME280;49182;50.788;7.318;2022-10-16T09:10:15;100886.22;;;15.84;93.47
43125;BME280;49182;50.788;7.318;2022-10-16T09:12:51;100871.88;;;15.76;94.46
43125;BME280;49182;50.788;7.318;2022-10-16T09:15:29;100896.41;;;15.96;93.54
43125;BME280;49182;50.788;7.318;2022-10-16T09:18:05;100903.22;;;15.99;93.68
43125;BME280;49182;50.788;7.318;2022-10-16T09:20:40;100887.75;;;15.94;92.79
43125;BME280;49182;50.788;7.318;2022-10-16T09:23:17;100899.28;;;16.19;92.99
43125;BME280;49182;50.788;7.318;2022-10-16T09:25:46;100899.13;;;16.21;91.15
43125;BME280;49182;50.788;7.318;2022-10-16T09:28:13;100903.66;;;16.28;88.64
43125;BME280;49182;50.788;7.318;2022-10-16T09:30:40;100907.00;;;16.38;89.33
43125;BME280;49182;50.788;7.318;2022-10-16T09:33:09;100914.16;;;16.46;87.59
43125;BME280;49182;50.788;7.318;2022-10-16T09:35:38;100912.81;;;16.50;87.60
43125;BME280;49182;50.788;7.318;2022-10-16T09:38:07;100911.31;;;16.55;87.11
43125;BME280;49182;50.788;7.318;2022-10-16T09:40:35;100907.88;;;16.63;85.72
43125;BME280;49182;50.788;7.318;2022-10-16T09:43:14;100918.72;;;16.70;83.98
43125;BME280;49182;50.788;7.318;2022-10-16T09:45:53;100905.88;;;16.81;83.05
43125;BME280;49182;50.788;7.318;2022-10-16T09:48:22;100908.88;;;16.94;78.77
43125;BME280;49182;50.788;7.318;2022-10-16T09:50:55;100897.69;;;16.99;78.24
43125;BME280;49182;50.788;7.318;2022-10-16T09:53:22;100901.66;;;17.19;77.97
43125;BME280;49182;50.788;7.318;2022-10-16T09:55:49;100905.63;;;17.31;77.00
43125;BME280;49182;50.788;7.318;2022-10-16T09:58:16;100908.63;;;17.36;74.98
43125;BME280;49182;50.788;7.318;2022-10-16T10:00:49;100908.06;;;17.57;76.08
43125;BME280;49182;50.788;7.318;2022-10-16T10:03:30;100899.22;;;17.65;74.87
43125;BME280;49182;50.788;7.318;2022-10-16T10:06:00;100907.63;;;17.85;76.57
43125;BME280;49182;50.788;7.318;2022-10-16T10:08:27;100907.28;;;17.96;73.65
43125;BME280;49182;50.788;7.318;2022-10-16T10:10:54;100907.88;;;18.06;72.07
43125;BME280;49182;50.788;7.318;2022-10-16T10:13:22;100893.97;;;18.10;70.30
43125;BME280;49182;50.788;7.318;2022-10-16T10:15:51;100890.91;;;18.22;70.18
43125;BME280;49182;50.788;7.318;2022-10-16T10:18:19;100903.50;;;18.36;69.23
43125;BME280;49182;50.788;7.318;2022-10-16T10:20:57;100895.88;;;18.55;69.00
43125;BME280;49182;50.788;7.318;2022-10-16T10:23:26;100883.66;;;18.53;67.63
43125;BME280;49182;50.788;7.318;2022-10-16T10:25:57;100884.13;;;18.79;69.60
43125;BME280;49182;50.788;7.318;2022-10-16T10:28:50;100896.44;;;18.88;64.84
43125;BME280;49182;50.788;7.318;2022-10-16T10:31:24;100902.66;;;19.04;65.00
43125;BME280;49182;50.788;7.318;2022-10-16T10:33:55;100880.78;;;19.29;64.54
43125;BME280;49182;50.788;7.318;2022-10-16T10:36:29;100890.13;;;19.33;61.28
43125;BME280;49182;50.788;7.318;2022-10-16T10:38:59;100874.06;;;19.19;61.07
43125;BME280;49182;50.788;7.318;2022-10-16T10:41:50;100886.00;;;19.46;62.11
43125;BME280;49182;50.788;7.318;2022-10-16T10:44:30;100895.59;;;19.55;59.09
43125;BME280;49182;50.788;7.318;2022-10-16T10:47:06;100903.81;;;19.68;58.94
43125;BME280;49182;50.788;7.318;2022-10-16T10:49:48;100906.28;;;19.84;59.86
43125;BME280;49182;50.788;7.318;2022-10-16T10:52:41;100891.88;;;19.85;59.67
43125;BME280;49182;50.788;7.318;2022-10-16T10:55:14;100877.97;;;19.96;58.81
43125;BME280;49182;50.788;7.318;2022-10-16T10:57:56;100890.84;;;20.22;58.99
43125;BME280;49182;50.788;7.318;2022-10-16T11:00:30;100896.81;;;20.39;59.71
43125;BME280;49182;50.788;7.318;2022-10-16T11:03:06;100894.69;;;20.49;58.88
43125;BME280;49182;50.788;7.318;2022-10-16T11:05:41;100899.63;;;20.73;58.66
43125;BME280;49182;50.788;7.318;2022-10-16T11:08:16;100893.75;;;20.84;57.01
43125;BME280;49182;50.788;7.318;2022-10-16T11:10:47;100902.50;;;20.99;57.90
43125;BME280;49182;50.788;7.318;2022-10-16T11:13:23;100897.50;;;21.18;58.03
43125;BME280;49182;50.788;7.318;2022-10-16T11:15:56;100907.84;;;21.49;56.21
43125;BME280;49182;50.788;7.318;2022-10-16T11:18:27;100896.94;;;21.57;55.15
43125;BME280;49182;50.788;7.318;2022-10-16T11:21:00;100906.31;;;21.74;54.07
43125;BME280;49182;50.788;7.318;2022-10-16T11:23:35;100907.00;;;21.89;53.26
43125;BME280;49182;50.788;7.318;2022-10-16T11:26:12;100906.66;;;21.99;51.93
43125;BME280;49182;50.788;7.318;2022-10-16T11:28:45;100904.66;;;22.14;51.65
43125;BME280;49182;50.788;7.318;2022-10-16T11:31:17;100912.16;;;22.32;52.01
43125;BME280;49182;50.788;7.318;2022-10-16T11:33:46;100905.09;;;22.31;50.50
43125;BME280;49182;50.788;7.318;2022-10-16T11:36:16;100906.38;;;22.48;51.02
43125;BME280;49182;50.788;7.318;2022-10-16T11:38:51;100907.63;;;22.65;50.46
43125;BME280;49182;50.788;7.318;2022-10-16T11:41:24;100900.59;;;22.64;50.31
43125;BME280;49182;50.788;7.318;2022-10-16T11:44:05;100909.69;;;22.50;48.90
43125;BME280;49182;50.788;7.318;2022-10-16T11:46:34;100904.72;;;22.60;49.65
43125;BME280;49182;50.788;7.318;2022-10-16T11:49:25;100904.72;;;22.60;49.63
43125;BME280;49182;50.788;7.318;2022-10-16T11:51:56;100909.53;;;22.78;50.26
43125;BME280;49182;50.788;7.318;2022-10-16T11:54:32;100910.94;;;22.54;48.43
43125;BME280;49182;50.788;7.318;2022-10-16T11:57:02;100915.69;;;22.39;49.36
43125;BME280;49182;50.788;7.318;2022-10-16T11:59:40;100911.06;;;22.13;49.86
43125;BME280;49182;50.788;7.318;2022-10-16T12:02:28;100920.97;;;22.12;50.98
43125;BME280;49182;50.788;7.318;2022-10-16T12:05:07;100921.41;;;22.09;49.97
43125;BME280;49182;50.788;7.318;2022-10-16T12:07:43;100917.03;;;22.02;51.30
43125;BME280;49182;50.788;7.318;2022-10-16T12:10:20;100918.25;;;22.06;52.40
43125;BME280;49182;50.788;7.318;2022-10-16T12:12:53;100911.44;;;22.03;51.57
43125;BME280;49182;50.788;7.318;2022-10-16T12:15:23;100920.28;;;21.97;52.21
43125;BME280;49182;50.788;7.318;2022-10-16T12:18:20;100904.50;;;21.81;54.17
43125;BME280;49182;50.788;7.318;2022-10-16T12:20:54;100917.50;;;21.77;55.74
43125;BME280;49182;50.788;7.318;2022-10-16T12:23:21;100917.47;;;21.71;56.57
43125;BME280;49182;50.788;7.318;2022-10-16T12:25:55;100914.31;;;21.61;57.47
43125;BME280;49182;50.788;7.318;2022-10-16T12:28:26;100902.72;;;21.54;57.54
43125;BME280;49182;50.788;7.318;2022-10-16T12:30:53;100920.66;;;21.47;57.31
43125;BME280;49182;50.788;7.318;2022-10-16T12:33:22;100921.00;;;21.37;58.34
43125;BME280;49182;50.788;7.318;2022-10-16T12:35:50;100923.44;;;21.32;59.45
43125;BME280;49182;50.788;7.318;2022-10-16T12:38:19;100901.88;;;21.19;59.94
43125;BME280;49182;50.788;7.318;2022-10-16T12:40:57;100913.25;;;21.21;60.07
43125;BME280;49182;50.788;7.318;2022-10-16T12:43:36;100916.19;;;21.26;59.66
43125;BME280;49182;50.788;7.318;2022-10-16T12:46:05;100907.69;;;21.22;58.60
43125;BME280;49182;50.788;7.318;2022-10-16T12:48:46;100922.81;;;21.30;57.82
43125;BME280;49182;50.788;7.318;2022-10-16T12:51:23;100910.16;;;21.24;58.24
43125;BME280;49182;50.788;7.318;2022-10-16T12:54:11;100917.66;;;21.28;57.42
43125;BME280;49182;50.788;7.318;2022-10-16T12:56:49;100895.50;;;21.26;59.21